Time;durP1;ratioP1;P1;durP2;ratioP2;P2;SDS_P1;SDS_P2;PMS_P1;PMS_P2;Temp;Humidity;BMP_temperature;BMP_pressure;BME280_temperature;BME280_humidity;BME280_pressure;Samples;Min_cycle;Max_cycle;Signal;HPM_P1;HPM_P2
2023/09/02 00:02:15;;;;;;;12.20;8.07;;;;;;;17.09;100.00;100492.13;5112632;28;20103;-79
2023/09/02 00:04:40;;;;;;;11.73;7.63;;;;;;;17.06;100.00;100496.06;5112389;28;20120;-79
2023/09/02 00:07:06;;;;;;;13.32;7.78;;;;;;;17.09;100.00;100494.22;5094516;28;20409;-79
2023/09/02 00:09:32;;;;;;;12.43;8.52;;;;;;;17.06;100.00;100480.84;5110786;28;20035;-78
2023/09/02 00:11:58;;;;;;;12.25;8.35;;;;;;;17.07;100.00;100491.84;5109878;28;20039;-78
2023/09/02 00:14:26;;;;;;;10.93;7.63;;;;;;;17.06;100.00;100490.28;5076073;28;20097;-79
2023/09/02 00:16:51;;;;;;;10.90;7.95;;;;;;;17.09;100.00;100494.22;5111745;28;20027;-80
2023/09/02 00:19:17;;;;;;;12.15;9.85;;;;;;;17.07;100.00;100497.63;5111700;28;20379;-79
2023/09/02 00:21:47;;;;;;;14.80;9.07;;;;;;;17.05;100.00;100494.47;5111487;28;20453;-80
2023/09/02 00:24:14;;;;;;;10.20;8.60;;;;;;;17.04;100.00;100495.03;5111346;28;20035;-78
2023/09/02 00:26:39;;;;;;;14.63;8.88;;;;;;;17.05;100.00;100491.59;5112017;28;20045;-78
2023/09/02 00:29:05;;;;;;;13.82;8.15;;;;;;;16.98;100.00;100480.63;5112650;28;20102;-80
2023/09/02 00:31:33;;;;;;;13.48;9.48;;;;;;;17.01;100.00;100502.66;5113030;28;20027;-79
2023/09/02 00:33:59;;;;;;;12.50;8.73;;;;;;;16.97;100.00;100505.81;5113713;28;20372;-79
2023/09/02 00:36:26;;;;;;;13.85;8.75;;;;;;;16.96;100.00;100506.34;5111716;28;20480;-79
2023/09/02 00:38:53;;;;;;;12.18;8.13;;;;;;;16.85;100.00;100510.06;5115151;28;20082;-80
2023/09/02 00:41:39;;;;;;;12.63;8.48;;;;;;;16.97;100.00;100508.72;5117422;28;20027;-80
2023/09/02 00:44:06;;;;;;;16.25;9.43;;;;;;;16.82;100.00;100490.94;5117270;28;20023;-79
2023/09/02 00:46:32;;;;;;;10.40;9.02;;;;;;;16.94;100.00;100511.91;5117300;28;20148;-78
2023/09/02 00:48:58;;;;;;;9.70;8.65;;;;;;;17.00;100.00;100518.41;5098857;28;20428;-79
2023/09/02 00:51:25;;;;;;;13.63;8.52;;;;;;;17.01;100.00;100514.19;5098640;28;20031;-79
2023/09/02 00:53:50;;;;;;;14.55;9.07;;;;;;;16.97;100.00;100514.50;5115684;28;20031;-79
2023/09/02 00:56:17;;;;;;;11.43;8.73;;;;;;;16.88;100.00;100511.13;5116945;28;20051;-79
2023/09/02 00:58:44;;;;;;;14.98;9.27;;;;;;;16.91;100.00;100515.81;5116880;28;20028;-79
2023/09/02 01:01:10;;;;;;;13.60;9.40;;;;;;;16.94;100.00;100532.84;5116854;28;20023;-79
2023/09/02 01:03:36;;;;;;;15.20;9.20;;;;;;;16.89;100.00;100519.25;5115402;28;20031;-79
2023/09/02 01:06:05;;;;;;;14.82;9.35;;;;;;;16.81;100.00;100508.78;5115665;28;20434;-79
2023/09/02 01:08:33;;;;;;;15.32;9.95;;;;;;;16.93;100.00;100521.88;5117060;28;20028;-79
2023/09/02 01:11:00;;;;;;;15.50;10.07;;;;;;;16.99;100.00;100534.19;5116726;28;20023;-78
2023/09/02 01:13:28;;;;;;;15.77;9.57;;;;;;;17.01;100.00;100542.28;5115447;28;20106;-77
2023/09/02 01:15:54;;;;;;;15.02;9.45;;;;;;;17.04;100.00;100541.25;5098398;28;20540;-80
2023/09/02 01:18:27;;;;;;;14.45;9.80;;;;;;;17.07;100.00;100545.94;5098327;28;20043;-78
2023/09/02 01:21:23;;;;;;;14.13;9.95;;;;;;;17.12;100.00;100548.00;5115087;28;20032;-78
2023/09/02 01:24:17;;;;;;;10.63;9.52;;;;;;;17.14;100.00;100549.03;5116522;28;20118;-79
2023/09/02 01:27:21;;;;;;;13.70;8.85;;;;;;;17.21;100.00;100545.59;5116240;28;20036;-79
2023/09/02 01:30:21;;;;;;;15.18;9.57;;;;;;;17.24;100.00;100541.63;5116480;28;20358;-80
2023/09/02 01:32:50;;;;;;;10.52;9.13;;;;;;;17.27;100.00;100548.47;5107371;28;20036;-79
2023/09/02 01:35:18;;;;;;;14.02;9.02;;;;;;;17.24;100.00;100543.75;5114878;28;20076;-79
2023/09/02 01:37:46;;;;;;;12.68;9.32;;;;;;;17.31;100.00;100549.75;5114831;28;20476;-79
2023/09/02 01:40:21;;;;;;;17.00;10.02;;;;;;;17.32;100.00;100553.41;5114701;28;20051;-79
2023/09/02 01:42:56;;;;;;;13.60;9.73;;;;;;;17.34;100.00;100551.53;5115970;28;20108;-78
2023/09/02 01:45:42;;;;;;;12.30;9.13;;;;;;;17.38;100.00;100554.97;5114871;28;20027;-80
2023/09/02 01:48:17;;;;;;;14.40;9.40;;;;;;;17.39;100.00;100558.59;5116048;28;20495;-80
2023/09/02 01:50:44;;;;;;;17.10;9.77;;;;;;;17.40;100.00;100558.09;5114619;28;20465;-79
2023/09/02 01:53:10;;;;;;;13.77;9.35;;;;;;;17.41;100.00;100550.19;5114578;28;20024;-78
2023/09/02 01:55:36;;;;;;;12.95;9.98;;;;;;;17.41;100.00;100558.88;5114538;28;20027;-78
2023/09/02 01:58:01;;;;;;;14.73;10.05;;;;;;;17.43;100.00;100556.25;5076670;28;20036;-79
2023/09/02 02:00:28;;;;;;;15.05;10.00;;;;;;;17.43;100.00;100553.34;5094286;28;20063;-79
2023/09/02 02:02:54;;;;;;;12.93;9.35;;;;;;;17.42;100.00;100555.47;5093984;28;20035;-79
2023/09/02 02:05:52;;;;;;;13.00;9.25;;;;;;;17.37;100.00;100556.28;5093136;28;20028;-78
2023/09/02 02:08:52;;;;;;;17.40;10.43;;;;;;;17.35;100.00;100563.88;5093692;28;20044;-80
2023/09/02 02:11:20;;;;;;;11.80;9.07;;;;;;;17.29;100.00;100558.16;5092937;28;20387;-78
2023/09/02 02:13:50;;;;;;;12.40;9.63;;;;;;;17.27;100.00;100562.91;5092959;28;20024;-79
2023/09/02 02:16:15;;;;;;;14.68;9.05;;;;;;;17.24;100.00;100564.72;5091566;28;20462;-79
2023/09/02 02:18:42;;;;;;;12.27;9.43;;;;;;;17.24;100.00;100570.50;5092680;28;20039;-79
2023/09/02 02:21:10;;;;;;;12.45;8.98;;;;;;;17.24;100.00;100570.50;5091242;28;20546;-78
2023/09/02 02:23:36;;;;;;;13.07;10.30;;;;;;;17.26;100.00;100570.00;5091490;28;20465;-78
2023/09/02 02:26:06;;;;;;;13.20;9.25;;;;;;;17.25;100.00;100580.75;5108523;28;20028;-78
2023/09/02 02:28:32;;;;;;;15.25;9.90;;;;;;;17.13;100.00;100578.47;5092292;28;20045;-78
2023/09/02 02:31:00;;;;;;;15.10;10.07;;;;;;;17.17;100.00;100568.22;5093423;28;20059;-79
2023/09/02 02:33:26;;;;;;;14.10;10.05;;;;;;;17.15;100.00;100567.16;5094781;28;20099;-78
2023/09/02 02:35:51;;;;;;;17.83;11.13;;;;;;;16.88;100.00;100563.09;5094258;28;20116;-78
2023/09/02 02:38:19;;;;;;;17.90;10.18;;;;;;;16.76;100.00;100573.09;5094287;28;20499;-78
2023/09/02 02:40:44;;;;;;;13.95;9.70;;;;;;;16.93;100.00;100585.38;5094336;28;20090;-78
2023/09/02 02:43:11;;;;;;;12.23;10.15;;;;;;;16.82;100.00;100560.22;5092901;28;20036;-79
2023/09/02 02:45:37;;;;;;;13.48;10.35;;;;;;;16.94;100.00;100576.16;5094356;28;20411;-79
2023/09/02 02:48:03;;;;;;;14.02;10.30;;;;;;;16.95;100.00;100582.72;5110349;28;20032;-78
2023/09/02 02:50:33;;;;;;;13.23;9.80;;;;;;;16.98;100.00;100585.34;5094275;28;20027;-80
2023/09/02 02:53:00;;;;;;;14.80;10.63;;;;;;;16.97;100.00;100574.34;5094150;28;20016;-79
2023/09/02 02:55:26;;;;;;;17.60;10.77;;;;;;;17.07;100.00;100581.38;5094840;28;20037;-79
2023/09/02 02:57:54;;;;;;;17.55;10.07;;;;;;;17.06;100.00;100573.25;5109795;28;20036;-77
2023/09/02 03:00:20;;;;;;;14.50;10.13;;;;;;;17.08;100.00;100576.38;5092237;28;20020;-78
2023/09/02 03:02:47;;;;;;;13.35;9.90;;;;;;;17.01;100.00;100574.03;5093803;28;20027;-79
2023/09/02 03:05:13;;;;;;;17.10;10.23;;;;;;;16.78;100.00;100582.81;5110011;28;20034;-78
2023/09/02 03:07:40;;;;;;;12.75;10.15;;;;;;;16.71;100.00;100599.88;5092771;28;20055;-79
2023/09/02 03:10:05;;;;;;;13.48;9.80;;;;;;;16.74;100.00;100614.03;5094119;28;20027;-79
2023/09/02 03:12:32;;;;;;;12.68;9.85;;;;;;;16.74;100.00;100599.63;5093936;28;20024;-79
2023/09/02 03:14:59;;;;;;;13.00;9.80;;;;;;;16.81;100.00;100607.72;5094125;28;20496;-80
2023/09/02 03:17:26;;;;;;;15.45;9.07;;;;;;;16.84;100.00;100603.78;5092744;28;20599;-80
2023/09/02 03:19:53;;;;;;;10.60;7.80;;;;;;;16.85;100.00;100602.44;5093800;28;20061;-81
2023/09/02 03:22:20;;;;;;;13.75;8.18;;;;;;;16.82;100.00;100591.97;5094151;28;20382;-80
2023/09/02 03:24:46;;;;;;;9.68;7.25;;;;;;;16.89;100.00;100602.97;5093914;28;20046;-78
2023/09/02 03:27:12;;;;;;;11.70;7.90;;;;;;;16.91;100.00;100597.44;5091880;28;20388;-80
2023/09/02 03:29:42;;;;;;;13.35;8.45;;;;;;;17.02;100.00;100595.84;5092002;28;20392;-80
2023/09/02 03:32:07;;;;;;;14.43;9.38;;;;;;;17.13;100.00;100595.78;5093730;28;20026;-79
2023/09/02 03:34:41;;;;;;;9.63;8.10;;;;;;;17.09;100.00;100592.41;5092315;28;20012;-78
2023/09/02 03:37:08;;;;;;;13.65;9.18;;;;;;;17.09;100.00;100595.28;5092548;28;20031;-78
2023/09/02 03:39:36;;;;;;;10.95;9.30;;;;;;;17.10;100.00;100597.63;5092235;28;20036;-80
2023/09/02 03:42:02;;;;;;;19.35;8.60;;;;;;;17.11;100.00;100598.41;5075664;28;20412;-80
2023/09/02 03:44:29;;;;;;;12.10;8.57;;;;;;;17.18;100.00;100600.75;5093404;28;20056;-80
2023/09/02 03:46:54;;;;;;;12.90;9.07;;;;;;;17.20;100.00;100607.56;5093788;28;20066;-79
2023/09/02 03:49:20;;;;;;;14.60;8.63;;;;;;;17.16;100.00;100598.41;5093540;28;20032;-79
2023/09/02 03:51:46;;;;;;;11.35;8.50;;;;;;;17.13;100.00;100607.34;5058740;28;20118;-79
2023/09/02 03:54:13;;;;;;;14.13;9.05;;;;;;;17.08;100.00;100611.84;5093382;28;20054;-79
2023/09/02 03:56:39;;;;;;;16.38;9.38;;;;;;;17.03;100.00;100597.41;5092393;28;20052;-78
2023/09/02 03:59:06;;;;;;;11.70;8.85;;;;;;;17.00;100.00;100605.03;5093269;28;20043;-79
2023/09/02 04:01:32;;;;;;;15.05;8.82;;;;;;;17.04;100.00;100619.19;5093769;28;20035;-80
2023/09/02 04:04:06;;;;;;;17.25;9.38;;;;;;;16.98;100.00;100608.47;5093509;28;20021;-78
2023/09/02 04:06:32;;;;;;;12.43;9.57;;;;;;;16.93;100.00;100611.38;5093563;28;20477;-79
2023/09/02 04:08:57;;;;;;;14.00;9.73;;;;;;;16.92;100.00;100613.47;5093287;28;20477;-77
2023/09/02 04:11:24;;;;;;;12.82;9.77;;;;;;;16.92;100.00;100625.00;5093214;28;20073;-78
2023/09/02 04:13:51;;;;;;;12.80;9.20;;;;;;;16.88;100.00;100626.59;5097413;28;20024;-78
2023/09/02 04:16:17;;;;;;;13.30;9.75;;;;;;;16.87;100.00;100631.59;5097476;28;20031;-78
2023/09/02 04:18:44;;;;;;;12.35;9.73;;;;;;;16.86;100.00;100629.22;5097275;28;20063;-79
2023/09/02 04:21:11;;;;;;;13.80;9.88;;;;;;;16.81;100.00;100633.69;5097529;28;20088;-79
2023/09/02 04:23:37;;;;;;;16.70;10.93;;;;;;;16.64;100.00;100646.59;5097083;28;20120;-78
2023/09/02 04:26:03;;;;;;;14.40;9.75;;;;;;;16.76;100.00;100634.50;5112916;28;20089;-78
2023/09/02 04:28:30;;;;;;;13.15;9.68;;;;;;;16.80;100.00;100642.88;5095650;28;20469;-78
2023/09/02 04:31:04;;;;;;;16.17;9.88;;;;;;;16.83;100.00;100647.59;5095724;28;20027;-78
2023/09/02 04:33:30;;;;;;;14.77;11.27;;;;;;;16.85;100.00;100650.72;5095626;28;20023;-79
2023/09/02 04:35:55;;;;;;;15.15;11.18;;;;;;;16.89;100.00;100662.81;5112734;28;20028;-79
2023/09/02 04:38:22;;;;;;;20.88;11.10;;;;;;;16.88;100.00;100664.91;5096903;28;20028;-79
2023/09/02 04:40:48;;;;;;;17.23;11.27;;;;;;;16.95;100.00;100661.47;5095470;28;20532;-78
2023/09/02 04:43:16;;;;;;;17.52;11.48;;;;;;;17.04;100.00;100671.19;5095673;28;20047;-79
2023/09/02 04:45:42;;;;;;;13.02;10.32;;;;;;;17.08;100.00;100674.56;5095812;28;20092;-79
2023/09/02 04:48:10;;;;;;;13.10;11.13;;;;;;;17.05;100.00;100669.84;5078487;28;20024;-78
2023/09/02 04:50:50;;;;;;;17.55;11.75;;;;;;;17.03;100.00;100667.50;5096698;28;20035;-79
2023/09/02 04:53:18;;;;;;;15.60;11.48;;;;;;;16.97;100.00;100670.41;5095808;28;20019;-78
2023/09/02 04:55:44;;;;;;;15.65;10.40;;;;;;;16.96;100.00;100662.25;5097909;28;20028;-80
2023/09/02 04:58:10;;;;;;;14.75;11.07;;;;;;;16.99;100.00;100672.78;5079385;28;20476;-78
2023/09/02 05:00:35;;;;;;;12.40;9.75;;;;;;;16.96;100.00;100663.03;5096485;28;20020;-80
2023/09/02 05:03:02;;;;;;;18.45;11.95;;;;;;;16.96;100.00;100668.81;5077925;28;20093;-77
2023/09/02 05:05:29;;;;;;;15.05;10.15;;;;;;;16.99;100.00;100667.00;5112131;28;20439;-79
2023/09/02 05:07:55;;;;;;;16.75;11.23;;;;;;;17.10;100.00;100684.25;5096169;28;20465;-79
2023/09/02 05:10:20;;;;;;;13.27;9.57;;;;;;;17.23;100.00;100686.59;5096456;28;20028;-79
2023/09/02 05:12:46;;;;;;;14.48;9.65;;;;;;;17.30;100.00;100675.28;5095186;28;20024;-79
2023/09/02 05:15:13;;;;;;;15.55;9.43;;;;;;;17.45;100.00;100680.75;5096308;28;20115;-79
2023/09/02 05:17:39;;;;;;;14.57;10.00;;;;;;;17.59;100.00;100679.63;5094922;28;20043;-79
2023/09/02 05:20:05;;;;;;;14.45;9.23;;;;;;;17.73;100.00;100680.63;5096474;28;20085;-79
2023/09/02 05:22:31;;;;;;;11.50;8.52;;;;;;;17.87;100.00;100682.38;5096501;28;20023;-79
2023/09/02 05:24:58;;;;;;;12.35;8.70;;;;;;;18.08;100.00;100680.66;5094231;28;20031;-79
2023/09/02 05:27:24;;;;;;;8.70;7.80;;;;;;;18.24;100.00;100676.06;5094858;28;20035;-78
2023/09/02 05:29:49;;;;;;;7.95;6.68;;;;;;;18.32;100.00;100665.53;5095543;28;20028;-80
2023/09/02 05:32:16;;;;;;;12.85;7.45;;;;;;;18.35;100.00;100669.44;5060868;28;20028;-82
2023/09/02 05:34:42;;;;;;;8.43;7.28;;;;;;;18.40;100.00;100663.59;5094388;28;20185;-81
2023/09/02 05:37:09;;;;;;;10.30;7.95;;;;;;;18.37;100.00;100673.38;5095640;28;20491;-81
2023/09/02 05:39:36;;;;;;;10.90;8.07;;;;;;;18.29;100.00;100678.13;5095426;28;20481;-80
2023/09/02 05:42:02;;;;;;;12.65;7.45;;;;;;;18.21;100.00;100671.38;5095873;28;20096;-80
2023/09/02 05:44:29;;;;;;;12.20;7.30;;;;;;;18.26;100.00;100680.00;5095900;28;20028;-81
2023/09/02 05:46:55;;;;;;;10.43;7.35;;;;;;;18.38;100.00;100688.59;5095928;28;20032;-80
2023/09/02 05:49:23;;;;;;;9.88;5.85;;;;;;;18.61;100.00;100693.69;5094126;28;20043;-81
2023/09/02 05:51:49;;;;;;;7.80;6.50;;;;;;;18.73;100.00;100685.66;5095918;28;20063;-79
2023/09/02 05:54:15;;;;;;;8.20;5.75;;;;;;;18.96;100.00;100689.94;5077166;28;20028;-80
2023/09/02 05:56:40;;;;;;;8.50;6.15;;;;;;;19.15;100.00;100686.31;5094081;28;20038;-81
2023/09/02 05:59:06;;;;;;;6.15;4.75;;;;;;;19.31;100.00;100688.25;5094961;28;20473;-80
2023/09/02 06:01:32;;;;;;;6.88;5.18;;;;;;;19.51;100.00;100696.44;5095129;28;20028;-81
2023/09/02 06:03:58;;;;;;;6.85;5.10;;;;;;;19.49;100.00;100688.28;5060142;28;20119;-80
2023/09/02 06:06:32;;;;;;;5.82;5.18;;;;;;;19.48;100.00;100683.00;5095415;28;20072;-80
2023/09/02 06:09:01;;;;;;;6.15;5.18;;;;;;;19.51;100.00;100690.63;5076954;28;20024;-80
2023/09/02 06:11:29;;;;;;;8.75;5.28;;;;;;;19.51;100.00;100681.94;5095283;28;20030;-81
2023/09/02 06:13:56;;;;;;;7.03;4.93;;;;;;;19.47;100.00;100690.94;5094315;28;20028;-79
2023/09/02 06:16:22;;;;;;;7.28;4.28;;;;;;;19.64;100.00;100692.84;5095084;28;20446;-83
2023/09/02 06:18:48;;;;;;;5.70;3.85;;;;;;;19.95;100.00;100692.94;5095289;28;20124;-85
2023/09/02 06:21:14;;;;;;;5.03;4.50;;;;;;;20.36;100.00;100688.88;5095140;28;20385;-84
2023/09/02 06:23:43;;;;;;;7.10;4.35;;;;;;;20.89;100.00;100686.94;5060323;28;20024;-86
2023/09/02 06:26:09;;;;;;;5.13;4.50;;;;;;;21.16;100.00;100670.28;5094217;28;20035;-88
2023/09/02 06:28:35;;;;;;;5.15;4.57;;;;;;;21.28;100.00;100679.59;5076987;28;20473;-86
2023/09/02 06:31:09;;;;;;;9.68;4.55;;;;;;;21.58;100.00;100683.69;5077895;28;20123;-85
2023/09/02 06:33:34;;;;;;;6.45;4.78;;;;;;;21.84;100.00;100687.91;5093449;28;20036;-85
2023/09/02 06:36:08;;;;;;;7.60;4.65;;;;;;;21.97;100.00;100679.16;5094701;28;20419;-84
2023/09/02 06:38:34;;;;;;;6.63;4.70;;;;;;;21.90;100.00;100680.63;5094203;28;20027;-84
2023/09/02 06:41:00;;;;;;;5.90;4.47;;;;;;;21.90;100.00;100669.00;5094707;28;20028;-83
2023/09/02 06:43:26;;;;;;;8.57;5.13;;;;;;;21.78;100.00;100681.47;5059480;28;20040;-83
2023/09/02 06:45:52;;;;;;;6.82;5.05;;;;;;;21.64;100.00;100689.41;5094702;28;20041;-82
2023/09/02 06:48:18;;;;;;;5.55;4.30;;;;;;;21.59;100.00;100690.31;5093340;28;20028;-80
2023/09/02 06:50:47;;;;;;;6.03;4.38;;;;;;;21.66;100.00;100695.47;5093245;28;20074;-82
2023/09/02 06:53:12;;;;;;;6.32;4.63;;;;;;;21.79;100.00;100697.53;5094896;28;20081;-82
2023/09/02 06:55:56;;;;;;;5.82;4.50;;;;;;;21.79;100.00;100692.50;5093898;28;20408;-81
2023/09/02 06:58:21;;;;;;;6.10;4.57;;;;;;;21.89;100.00;100690.69;5096583;28;20027;-86
2023/09/02 07:00:49;;;;;;;5.82;4.07;;;;;;;22.28;100.00;100703.59;5102746;28;20043;-82
2023/09/02 07:03:14;;;;;;;5.30;3.60;;;;;;;22.88;100.00;100707.13;5098133;28;20052;-82
2023/09/02 07:05:40;;;;;;;5.40;3.30;;;;;;;23.74;100.00;100708.69;5108589;28;20062;-80
2023/09/02 07:08:06;;;;;;;4.47;3.55;;;;;;;24.49;100.00;100703.72;5111949;28;20023;-81
2023/09/02 07:10:34;;;;;;;6.05;3.63;;;;;;;25.06;100.00;100695.38;5095198;28;20038;-79
2023/09/02 07:12:59;;;;;;;5.13;3.80;;;;;;;25.91;100.00;100692.44;5113329;28;20051;-78
2023/09/02 07:15:47;;;;;;;5.88;3.75;;;;;;;26.74;100.00;100682.41;5111522;28;20074;-77
2023/09/02 07:18:13;;;;;;;5.78;3.22;;;;;;;27.57;100.00;100680.81;5113758;28;20034;-78
2023/09/02 07:20:39;;;;;;;4.22;3.08;;;;;;;28.39;100.00;100677.38;5113804;28;20115;-77
2023/09/02 07:23:13;;;;;;;5.72;3.60;;;;;;;29.01;100.00;100683.09;5114123;28;20026;-78
2023/09/02 07:25:41;;;;;;;3.47;2.83;;;;;;;29.56;100.00;100676.41;5105649;28;20102;-78
2023/09/02 07:28:09;;;;;;;3.95;2.97;;;;;;;30.11;100.00;100679.22;5102633;28;20031;-79
2023/09/02 07:30:38;;;;;;;3.38;2.10;;;;;;;30.69;100.00;100670.19;5104978;28;20484;-77
2023/09/02 07:33:04;;;;;;;1.90;1.80;;;;;;;31.18;100.00;100682.53;5094290;28;20024;-77
2023/09/02 07:35:36;;;;;;;3.88;2.13;;;;;;;31.36;100.00;100683.81;5092560;28;20032;-80
2023/09/02 07:38:03;;;;;;;3.20;2.58;;;;;;;31.34;100.00;100677.78;5093566;28;20040;-79
2023/09/02 07:40:30;;;;;;;2.40;2.20;;;;;;;31.34;100.00;100687.41;5093782;28;20123;-79
2023/09/02 07:43:00;;;;;;;2.40;2.20;;;;;;;31.02;100.00;100682.13;5093574;28;20064;-80
2023/09/02 07:45:25;;;;;;;2.75;2.55;;;;;;;30.25;100.00;100697.19;5075320;28;20028;-81
2023/09/02 07:47:53;;;;;;;3.25;2.67;;;;;;;29.35;100.00;100693.88;5093032;28;20385;-76
2023/09/02 07:50:27;;;;;;;3.55;3.25;;;;;;;28.26;100.00;100701.31;5075549;28;20089;-76
2023/09/02 07:52:53;;;;;;;3.35;3.05;;;;;;;27.33;100.00;100707.31;5093538;28;20105;-81
2023/09/02 07:55:20;;;;;;;3.28;2.72;;;;;;;27.19;100.00;100695.09;5093694;28;20067;-77
2023/09/02 07:57:46;;;;;;;2.60;2.05;;;;;;;27.70;100.00;100706.09;5094284;28;20024;-77
2023/09/02 08:00:13;;;;;;;4.85;2.45;;;;;;;28.47;100.00;100706.72;5102510;28;20146;-76
2023/09/02 08:02:39;;;;;;;2.55;2.35;;;;;;;29.45;100.00;100703.50;5105399;28;20073;-79
2023/09/02 08:05:11;;;;;;;4.68;2.60;;;;;;;30.06;100.00;100709.75;5108231;28;20020;-79
2023/09/02 08:07:38;;;;;;;3.70;2.50;;;;;;;30.27;100.00;100703.22;5081796;28;20023;-77
2023/09/02 08:10:05;;;;;;;2.88;2.67;;;;;;;30.45;100.00;100719.34;5112008;28;20043;-78
2023/09/02 08:12:30;;;;;;;3.92;2.78;;;;;;;30.52;100.00;100709.50;5113893;28;20481;-79
2023/09/02 08:14:58;;;;;;;3.05;2.78;;;;;;;30.61;100.00;100710.91;5113881;28;20473;-77
2023/09/02 08:17:25;;;;;;;5.03;2.83;;;;;;;30.83;100.00;100714.72;5112353;28;20112;-76
2023/09/02 08:19:51;;;;;;;5.93;2.88;;;;;;;30.89;100.00;100712.97;5102587;28;20032;-75
2023/09/02 08:22:17;;;;;;;3.88;2.40;;;;;;;31.08;100.00;100715.06;5075068;28;20040;-77
2023/09/02 08:24:45;;;;;;;4.53;2.90;;;;;;;31.49;100.00;100721.69;5093282;28;20102;-76
2023/09/02 08:27:11;;;;;;;3.03;2.83;;;;;;;31.86;100.00;100725.00;5074841;28;20035;-76
2023/09/02 08:29:38;;;;;;;2.90;2.65;;;;;;;32.07;100.00;100724.97;5093143;28;20035;-77
2023/09/02 08:32:04;;;;;;;3.55;2.70;;;;;;;32.00;98.54;100725.94;5093135;28;20036;-79
2023/09/02 08:34:29;;;;;;;2.65;2.20;;;;;;;31.47;100.00;100717.81;5101762;28;20027;-77
2023/09/02 08:36:56;;;;;;;3.33;2.80;;;;;;;30.99;100.00;100722.56;5099655;28;20044;-77
2023/09/02 08:39:22;;;;;;;2.60;2.17;;;;;;;30.60;99.97;100729.22;5074992;28;20109;-77
2023/09/02 08:41:57;;;;;;;2.60;2.40;;;;;;;30.23;100.00;100741.25;5092972;28;20040;-77
2023/09/02 08:44:28;;;;;;;3.55;2.80;;;;;;;29.88;100.00;100734.09;5091677;28;20097;-78
2023/09/02 08:46:56;;;;;;;5.57;3.00;;;;;;;29.36;100.00;100731.56;5092037;28;20026;-78
2023/09/02 08:49:23;;;;;;;3.10;2.80;;;;;;;29.39;100.00;100735.44;5091911;28;20028;-77
2023/09/02 08:51:48;;;;;;;3.25;2.40;;;;;;;29.54;100.00;100741.81;5075205;28;20551;-78
2023/09/02 08:54:17;;;;;;;2.53;2.10;;;;;;;29.90;100.00;100735.06;5087353;28;20020;-76
2023/09/02 08:56:42;;;;;;;3.95;2.20;;;;;;;30.23;100.00;100735.34;5091771;28;20054;-78
2023/09/02 08:59:13;;;;;;;3.78;2.20;;;;;;;30.54;100.00;100739.19;5109382;28;20114;-78
2023/09/02 09:01:44;;;;;;;3.65;2.17;;;;;;;30.87;100.00;100744.53;5096794;28;20024;-78
2023/09/02 09:04:10;;;;;;;;;;;;;;;30.81;96.58;100750.00;5115348;27;20059;-78
2023/09/02 09:06:37;;;;;;;4.10;2.30;;;;;;;30.45;100.00;100754.72;5095071;28;19912;-79
2023/09/02 09:09:03;;;;;;;3.47;1.80;;;;;;;30.01;100.00;100752.13;5072100;28;20036;-78
2023/09/02 09:11:31;;;;;;;2.08;1.70;;;;;;;29.84;100.00;100748.53;5094768;28;20043;-77
2023/09/02 09:13:59;;;;;;;4.57;1.42;;;;;;;29.90;100.00;100743.91;5078104;28;20036;-76
2023/09/02 09:16:26;;;;;;;2.30;1.92;;;;;;;29.81;100.00;100752.75;5096330;28;20024;-77
2023/09/02 09:18:52;;;;;;;1.75;1.60;;;;;;;29.62;100.00;100747.59;5094870;28;20040;-77
2023/09/02 09:21:18;;;;;;;2.60;1.40;;;;;;;29.76;100.00;100757.53;5096384;28;20063;-75
2023/09/02 09:23:44;;;;;;;2.60;1.40;;;;;;;29.84;100.00;100760.31;5103432;27;20520;-76
2023/09/02 09:26:11;;;;;;;2.00;1.80;;;;;;;29.79;100.00;100761.41;5114664;28;20085;-77
2023/09/02 09:28:54;;;;;;;3.35;1.65;;;;;;;29.90;100.00;100763.75;5114691;28;20330;-77
2023/09/02 09:31:21;;;;;;;2.22;1.40;;;;;;;29.85;100.00;100765.63;5115732;28;20144;-76
2023/09/02 09:33:54;;;;;;;2.38;1.38;;;;;;;29.64;100.00;100768.38;5114367;28;20096;-76
2023/09/02 09:36:24;;;;;;;1.80;1.40;;;;;;;29.41;100.00;100762.09;5114017;28;20499;-76
2023/09/02 09:38:53;;;;;;;4.88;2.33;;;;;;;29.52;100.00;100777.03;5113639;28;20056;-76
2023/09/02 09:41:25;;;;;;;2.10;1.70;;;;;;;29.40;100.00;100766.44;5111509;28;20415;-76
2023/09/02 09:44:12;;;;;;;2.88;1.45;;;;;;;29.15;100.00;100778.44;5114692;28;20040;-76
2023/09/02 09:46:44;;;;;;;1.73;1.63;;;;;;;28.94;100.00;100781.09;5115715;27;20035;-75
2023/09/02 09:49:18;;;;;;;;;;;;;;;28.91;100.00;100776.47;5115910;28;20035;-75
2023/09/02 09:51:43;;;;;;;1.90;1.48;;;;;;;29.00;100.00;100778.66;5113199;27;19919;-75
2023/09/02 09:54:09;;;;;;;1.50;1.40;;;;;;;29.12;100.00;100782.63;5107299;28;20688;-76
2023/09/02 09:56:42;;;;;;;2.38;1.80;;;;;;;29.09;100.00;100781.69;5110397;28;20023;-77
2023/09/02 09:59:08;;;;;;;1.33;1.23;;;;;;;28.73;100.00;100779.47;5106656;28;20040;-76
2023/09/02 10:01:34;;;;;;;1.83;1.33;;;;;;;28.36;100.00;100786.63;5111249;28;20035;-75
2023/09/02 10:04:06;;;;;;;3.20;1.80;;;;;;;27.89;100.00;100784.88;5110812;27;20327;-77
2023/09/02 10:06:36;;;;;;;3.50;1.55;;;;;;;27.48;100.00;100792.31;5110563;28;20476;-77
2023/09/02 10:09:02;;;;;;;4.95;1.52;;;;;;;27.29;100.00;100784.03;5107936;28;20036;-77
2023/09/02 10:11:27;;;;;;;2.95;1.60;;;;;;;27.24;100.00;100788.00;5112209;28;20020;-76
2023/09/02 10:13:53;;;;;;;2.72;1.58;;;;;;;26.98;100.00;100789.38;5110313;27;20066;-76
2023/09/02 10:16:19;;;;;;;2.00;1.52;;;;;;;26.69;100.00;100776.44;5111221;28;20596;-78
2023/09/02 10:18:49;;;;;;;4.30;1.90;;;;;;;26.56;100.00;100785.53;5113006;27;20024;-77
2023/09/02 10:21:15;;;;;;;3.33;1.80;;;;;;;26.56;100.00;100786.31;5110976;28;20068;-76
2023/09/02 10:23:50;;;;;;;2.08;1.75;;;;;;;26.60;100.00;100782.97;5113335;28;20036;-76
2023/09/02 10:26:24;;;;;;;1.85;1.50;;;;;;;26.85;100.00;100783.81;5110707;28;20032;-76
2023/09/02 10:29:00;;;;;;;1.67;1.50;;;;;;;27.08;100.00;100790.28;5091257;28;20102;-80
2023/09/02 10:31:48;;;;;;;2.13;1.73;;;;;;;27.53;100.00;100794.22;5113552;28;20019;-77
2023/09/02 10:34:36;;;;;;;2.85;1.60;;;;;;;27.73;100.00;100792.25;5111801;28;20024;-77
2023/09/02 10:37:08;;;;;;;2.17;1.67;;;;;;;27.90;100.00;100793.06;5106421;28;20499;-79
2023/09/02 10:40:05;;;;;;;3.70;1.70;;;;;;;28.18;100.00;100806.47;5111752;28;20051;-81
2023/09/02 10:42:35;;;;;;;4.65;1.60;;;;;;;28.40;100.00;100810.50;5112609;28;20012;-80
2023/09/02 10:45:14;;;;;;;2.15;1.92;;;;;;;28.47;100.00;100808.88;5113685;27;20051;-77
2023/09/02 10:47:50;;;;;;;2.20;1.58;;;;;;;28.42;100.00;100813.63;5109214;28;20072;-78
2023/09/02 10:50:21;;;;;;;3.70;1.80;;;;;;;28.30;100.00;100815.53;5104449;28;20027;-76
2023/09/02 10:52:49;;;;;;;2.10;1.70;;;;;;;28.18;100.00;100811.56;5114432;28;20031;-77
2023/09/02 10:55:16;;;;;;;2.40;1.65;;;;;;;28.10;100.00;100802.03;5114294;28;20096;-83
2023/09/02 10:57:55;;;;;;;3.92;1.77;;;;;;;27.98;100.00;100817.28;5115050;28;20024;-81
2023/09/02 11:00:26;;;;;;;1.55;1.20;;;;;;;27.95;100.00;100817.69;5115282;28;20023;-80
2023/09/02 11:02:53;;;;;;;3.58;1.45;;;;;;;27.82;100.00;100815.84;5114980;28;20027;-82
2023/09/02 11:05:21;;;;;;;2.22;1.85;;;;;;;27.52;100.00;100801.47;5095217;28;20028;-83
2023/09/02 11:07:49;;;;;;;1.75;1.65;;;;;;;27.26;100.00;100799.91;5093713;28;20024;-80
2023/09/02 11:10:52;;;;;;;2.25;2.03;;;;;;;27.07;100.00;100805.53;5086900;28;20024;-81
2023/09/02 11:13:18;;;;;;;1.48;1.38;;;;;;;26.90;100.00;100803.31;5113950;28;20023;-81
2023/09/02 11:16:10;;;;;;;2.13;1.92;;;;;;;26.81;100.00;100809.84;5112770;28;20476;-80
2023/09/02 11:18:39;;;;;;;1.70;1.60;;;;;;;26.58;100.00;100809.94;5112935;28;20026;-81
2023/09/02 11:21:05;;;;;;;1.80;1.70;;;;;;;26.58;100.00;100812.88;5108576;28;20012;-79